Time;durP1;ratioP1;P1;durP2;ratioP2;P2;SDS_P1;SDS_P2;PMS_P1;PMS_P2;Temp;Humidity;BMP_temperature;BMP_pressure;BME280_temperature;BME280_humidity;BME280_pressure;Samples;Min_cycle;Max_cycle;Signal;HPM_P1;HPM_P2
2022/12/29 00:02:14;;;;;;;0.00;0.00;;;;;;;;;;7389042;19;20643;-66
2022/12/29 00:04:43;;;;;;;0.10;0.10;;;;;;;;;;7390143;19;20679;-66
2022/12/29 00:07:12;;;;;;;0.00;0.00;;;;;;;;;;7387687;19;20773;-66
2022/12/29 00:09:41;;;;;;;0.10;0.10;;;;;;;;;;7389590;19;20623;-66
2022/12/29 00:12:09;;;;;;;0.10;0.10;;;;;;;;;;7391558;19;20607;-67
2022/12/29 00:17:22;;;;;;;0.10;0.10;;;;;;;;;;7383343;19;20768;-67
2022/12/29 00:36:05;;;;;;;0.10;0.10;;;;;;;;;;7388168;19;20647;-66
2022/12/29 00:44:10;;;;;;;0.10;0.10;;;;;;;;;;7390164;19;20628;-66
2022/12/29 00:46:42;;;;;;;0.10;0.10;;;;;;;;;;7388228;19;21067;-67
2022/12/29 00:51:54;;;;;;;0.10;0.10;;;;;;;;;;7389300;19;20619;-67
2022/12/29 00:54:23;;;;;;;0.00;0.00;;;;;;;;;;7390341;19;20640;-67
2022/12/29 00:56:53;;;;;;;0.10;0.10;;;;;;;;;;7388727;19;20699;-66
2022/12/29 00:59:23;;;;;;;0.10;0.10;;;;;;;;;;7389316;19;20678;-66
2022/12/29 01:01:56;;;;;;;0.10;0.10;;;;;;;;;;7391069;19;20603;-67
2022/12/29 01:04:26;;;;;;;0.00;0.00;;;;;;;;;;7390764;19;20580;-66
2022/12/29 01:06:55;;;;;;;0.00;0.00;;;;;;;;;;7386602;19;20712;-66
2022/12/29 01:12:06;;;;;;;0.00;0.00;;;;;;;;;;7385807;19;20614;-67
2022/12/29 01:14:35;;;;;;;0.10;0.10;;;;;;;;;;7387642;19;20611;-67
2022/12/29 01:17:08;;;;;;;0.00;0.00;;;;;;;;;;7386250;19;20670;-67
2022/12/29 01:19:37;;;;;;;0.00;0.00;;;;;;;;;;7389602;19;20586;-67
2022/12/29 01:22:06;;;;;;;0.10;0.10;;;;;;;;;;7387535;19;20680;-67
2022/12/29 01:24:35;;;;;;;0.10;0.10;;;;;;;;;;7388135;19;20627;-68
2022/12/29 01:27:04;;;;;;;0.10;0.10;;;;;;;;;;7383267;19;20684;-67
2022/12/29 01:29:33;;;;;;;0.10;0.10;;;;;;;;;;7386843;19;20711;-67
2022/12/29 01:32:01;;;;;;;0.10;0.10;;;;;;;;;;7388061;19;20670;-67
2022/12/29 01:34:33;;;;;;;0.10;0.10;;;;;;;;;;7386640;19;20750;-67
2022/12/29 01:37:02;;;;;;;0.10;0.10;;;;;;;;;;7387711;19;20619;-68
2022/12/29 01:39:31;;;;;;;0.10;0.10;;;;;;;;;;7387823;19;20623;-66
2022/12/29 01:42:00;;;;;;;0.00;0.00;;;;;;;;;;7387635;19;20623;-67
2022/12/29 01:44:44;;;;;;;0.00;0.00;;;;;;;;;;7385816;19;20749;-67
2022/12/29 01:47:13;;;;;;;0.03;0.03;;;;;;;;;;7388292;19;20671;-67
2022/12/29 01:49:45;;;;;;;0.10;0.10;;;;;;;;;;7388504;19;20630;-67
2022/12/29 01:52:14;;;;;;;0.10;0.10;;;;;;;;;;7388202;19;20607;-67
2022/12/29 01:54:44;;;;;;;0.10;0.10;;;;;;;;;;7386752;19;20665;-67
2022/12/29 01:57:19;;;;;;;0.10;0.10;;;;;;;;;;7387046;19;21389;-65
2022/12/29 01:59:50;;;;;;;0.00;0.00;;;;;;;;;;7389541;19;20621;-67
2022/12/29 02:02:19;;;;;;;0.10;0.10;;;;;;;;;;7386305;19;20623;-66
2022/12/29 02:04:51;;;;;;;0.00;0.00;;;;;;;;;;7386332;19;20680;-67
2022/12/29 02:07:21;;;;;;;0.10;0.10;;;;;;;;;;7384754;19;20675;-67
2022/12/29 02:09:51;;;;;;;0.10;0.10;;;;;;;;;;7387170;19;20626;-67
2022/12/29 02:12:21;;;;;;;0.10;0.10;;;;;;;;;;7384324;19;20680;-66
2022/12/29 02:14:50;;;;;;;0.10;0.10;;;;;;;;;;7388199;19;20753;-67
2022/12/29 02:17:25;;;;;;;0.03;0.03;;;;;;;;;;7383742;19;20666;-67
2022/12/29 02:20:21;;;;;;;0.00;0.00;;;;;;;;;;7385964;19;21320;-66
2022/12/29 02:22:57;;;;;;;0.10;0.10;;;;;;;;;;7389480;19;20642;-67
2022/12/29 02:25:41;;;;;;;0.10;0.10;;;;;;;;;;7394325;19;20594;-67
2022/12/29 02:28:34;;;;;;;0.10;0.10;;;;;;;;;;7392759;19;20611;-67
2022/12/29 02:31:12;;;;;;;0.10;0.10;;;;;;;;;;7392206;19;21459;-66
2022/12/29 02:33:46;;;;;;;0.10;0.10;;;;;;;;;;7393397;19;20638;-67
2022/12/29 02:36:23;;;;;;;0.10;0.10;;;;;;;;;;7390604;19;20657;-67
2022/12/29 02:38:56;;;;;;;0.10;0.10;;;;;;;;;;7392693;19;20634;-66
2022/12/29 02:41:29;;;;;;;0.10;0.10;;;;;;;;;;7393526;19;20962;-67
2022/12/29 02:44:02;;;;;;;0.03;0.03;;;;;;;;;;7392635;19;20691;-67
2022/12/29 02:46:37;;;;;;;0.10;0.10;;;;;;;;;;7392058;19;20695;-67
2022/12/29 02:49:09;;;;;;;0.00;0.00;;;;;;;;;;7392946;19;20618;-67
2022/12/29 02:51:42;;;;;;;0.00;0.00;;;;;;;;;;7393033;19;20623;-67
2022/12/29 02:56:53;;;;;;;0.07;0.07;;;;;;;;;;7392953;19;20706;-66
2022/12/29 02:59:22;;;;;;;0.10;0.10;;;;;;;;;;7393355;19;20623;-66
2022/12/29 03:05:10;;;;;;;0.10;0.10;;;;;;;;;;7392176;19;20642;-66
2022/12/29 03:07:43;;;;;;;0.00;0.00;;;;;;;;;;7391005;19;20643;-67
2022/12/29 03:10:18;;;;;;;0.00;0.00;;;;;;;;;;7393673;19;20599;-67
2022/12/29 03:18:24;;;;;;;0.10;0.10;;;;;;;;;;7393728;19;20591;-67
2022/12/29 03:20:57;;;;;;;0.00;0.00;;;;;;;;;;7391631;19;20651;-65
2022/12/29 03:23:27;;;;;;;0.10;0.10;;;;;;;;;;7391383;19;20734;-67
2022/12/29 03:25:58;;;;;;;0.10;0.10;;;;;;;;;;7392677;19;20958;-67
2022/12/29 03:28:31;;;;;;;0.10;0.10;;;;;;;;;;7391325;19;20622;-67
2022/12/29 03:31:01;;;;;;;0.10;0.10;;;;;;;;;;7389858;19;20610;-67
2022/12/29 03:33:35;;;;;;;0.10;0.10;;;;;;;;;;7391047;19;20745;-67
2022/12/29 03:36:06;;;;;;;0.10;0.10;;;;;;;;;;7389619;19;20704;-66
2022/12/29 03:38:38;;;;;;;0.03;0.03;;;;;;;;;;7392158;19;20603;-67
2022/12/29 03:41:09;;;;;;;0.10;0.10;;;;;;;;;;7390924;19;20672;-67
2022/12/29 03:43:38;;;;;;;0.10;0.10;;;;;;;;;;7389019;19;20965;-67
2022/12/29 03:46:07;;;;;;;0.00;0.00;;;;;;;;;;7390517;19;20654;-67
2022/12/29 03:48:39;;;;;;;0.00;0.00;;;;;;;;;;7390593;19;20741;-67
2022/12/29 03:51:08;;;;;;;0.03;0.03;;;;;;;;;;7391575;19;20697;-67
2022/12/29 03:53:37;;;;;;;0.00;0.00;;;;;;;;;;7390120;19;20699;-66
2022/12/29 03:56:06;;;;;;;0.10;0.10;;;;;;;;;;7388956;19;20670;-67
2022/12/29 03:58:36;;;;;;;0.10;0.10;;;;;;;;;;7390445;19;20626;-67
2022/12/29 04:01:11;;;;;;;0.03;0.03;;;;;;;;;;7390919;19;20619;-67
2022/12/29 04:03:44;;;;;;;0.10;0.10;;;;;;;;;;7390039;19;20661;-67
2022/12/29 04:06:13;;;;;;;0.10;0.10;;;;;;;;;;7389352;19;20666;-67
2022/12/29 04:08:52;;;;;;;0.10;0.10;;;;;;;;;;7389795;19;20977;-67
2022/12/29 04:11:22;;;;;;;0.10;0.10;;;;;;;;;;7389858;19;20673;-67
2022/12/29 04:13:52;;;;;;;0.00;0.00;;;;;;;;;;7389735;19;20619;-67
2022/12/29 04:16:25;;;;;;;0.10;0.10;;;;;;;;;;7389405;19;20654;-67
2022/12/29 04:18:57;;;;;;;0.10;0.10;;;;;;;;;;7391118;19;20691;-67
2022/12/29 04:21:26;;;;;;;0.10;0.10;;;;;;;;;;7388758;19;20618;-67
2022/12/29 04:23:55;;;;;;;0.00;0.00;;;;;;;;;;7387786;19;20733;-66
2022/12/29 04:26:24;;;;;;;0.00;0.00;;;;;;;;;;7388258;19;20682;-67
2022/12/29 04:29:00;;;;;;;0.03;0.03;;;;;;;;;;7388678;19;21025;-65
2022/12/29 04:32:00;;;;;;;0.00;0.00;;;;;;;;;;7391268;19;20591;-67
2022/12/29 04:34:34;;;;;;;0.10;0.10;;;;;;;;;;7388315;19;20692;-67
2022/12/29 04:37:03;;;;;;;0.00;0.00;;;;;;;;;;7388351;19;20739;-67
2022/12/29 04:39:33;;;;;;;0.10;0.10;;;;;;;;;;7388408;19;21297;-67
2022/12/29 04:42:02;;;;;;;0.10;0.10;;;;;;;;;;7389859;19;21301;-67
2022/12/29 04:44:32;;;;;;;0.10;0.10;;;;;;;;;;7386799;19;20628;-67
2022/12/29 04:47:09;;;;;;;0.00;0.00;;;;;;;;;;7384672;19;20666;-65
2022/12/29 04:49:50;;;;;;;0.10;0.10;;;;;;;;;;7388136;19;20619;-66
2022/12/29 04:52:31;;;;;;;0.00;0.00;;;;;;;;;;7390724;19;20595;-67
2022/12/29 04:55:00;;;;;;;0.00;0.00;;;;;;;;;;7388831;19;20627;-67
2022/12/29 04:57:29;;;;;;;0.00;0.00;;;;;;;;;;7386704;19;20667;-67
2022/12/29 05:00:01;;;;;;;0.10;0.10;;;;;;;;;;7389001;19;20638;-67
2022/12/29 05:02:30;;;;;;;0.07;0.07;;;;;;;;;;7388894;19;20634;-67
2022/12/29 05:05:02;;;;;;;0.10;0.10;;;;;;;;;;7388318;19;20653;-67
2022/12/29 05:07:33;;;;;;;0.03;0.03;;;;;;;;;;7387435;19;20691;-67
2022/12/29 05:10:02;;;;;;;0.10;0.10;;;;;;;;;;7386708;19;20741;-68
2022/12/29 05:12:33;;;;;;;0.00;0.00;;;;;;;;;;7387562;19;20657;-67
2022/12/29 05:15:04;;;;;;;0.00;0.00;;;;;;;;;;7387924;19;20729;-67
2022/12/29 05:17:34;;;;;;;0.00;0.00;;;;;;;;;;7386343;19;20683;-67
2022/12/29 05:20:05;;;;;;;0.10;0.10;;;;;;;;;;7383847;19;20603;-66
2022/12/29 05:22:35;;;;;;;0.10;0.10;;;;;;;;;;7388055;19;20683;-67
2022/12/29 05:25:04;;;;;;;0.00;0.00;;;;;;;;;;7388955;19;20623;-67
2022/12/29 05:27:38;;;;;;;0.10;0.10;;;;;;;;;;7387087;19;20623;-67
2022/12/29 05:30:13;;;;;;;0.00;0.00;;;;;;;;;;7386805;19;20632;-67
2022/12/29 05:32:43;;;;;;;0.00;0.00;;;;;;;;;;7387596;19;20611;-67
2022/12/29 05:35:14;;;;;;;0.07;0.07;;;;;;;;;;7386273;19;20619;-67
2022/12/29 05:37:43;;;;;;;0.10;0.10;;;;;;;;;;7388485;19;20695;-67
2022/12/29 05:40:13;;;;;;;0.00;0.00;;;;;;;;;;7388324;19;20628;-67
2022/12/29 05:42:42;;;;;;;0.00;0.00;;;;;;;;;;7387883;19;20665;-67
2022/12/29 05:45:36;;;;;;;0.00;0.00;;;;;;;;;;7386889;19;20734;-67
2022/12/29 05:48:14;;;;;;;0.00;0.00;;;;;;;;;;7385532;19;21044;-67
2022/12/29 05:51:08;;;;;;;0.10;0.10;;;;;;;;;;7387284;19;20623;-67
2022/12/29 05:53:49;;;;;;;0.00;0.00;;;;;;;;;;7386363;19;20627;-67
2022/12/29 05:56:18;;;;;;;0.10;0.10;;;;;;;;;;7385389;19;20717;-67
2022/12/29 05:58:53;;;;;;;0.00;0.00;;;;;;;;;;7394655;19;20676;-67
2022/12/29 06:01:23;;;;;;;0.10;0.10;;;;;;;;;;7394340;19;20763;-67
2022/12/29 06:03:52;;;;;;;0.00;0.00;;;;;;;;;;7394861;19;20622;-67
2022/12/29 06:06:25;;;;;;;0.10;0.10;;;;;;;;;;7392211;19;20723;-67
2022/12/29 06:08:55;;;;;;;0.00;0.00;;;;;;;;;;7390490;19;20665;-67
2022/12/29 06:11:24;;;;;;;0.10;0.10;;;;;;;;;;7393241;19;20690;-67
2022/12/29 06:13:57;;;;;;;0.10;0.10;;;;;;;;;;7392921;19;20631;-67
2022/12/29 06:16:26;;;;;;;0.00;0.00;;;;;;;;;;7393390;19;21096;-67
2022/12/29 06:18:59;;;;;;;0.10;0.10;;;;;;;;;;7393449;19;20666;-67
2022/12/29 06:21:31;;;;;;;0.00;0.00;;;;;;;;;;7394129;19;20636;-67
2022/12/29 06:24:02;;;;;;;0.10;0.10;;;;;;;;;;7395121;19;20646;-67
2022/12/29 06:26:31;;;;;;;0.00;0.00;;;;;;;;;;7391495;19;20659;-67
2022/12/29 06:29:01;;;;;;;0.10;0.10;;;;;;;;;;7390785;19;20630;-66
2022/12/29 06:31:30;;;;;;;0.00;0.00;;;;;;;;;;7394379;19;20603;-66
2022/12/29 06:33:59;;;;;;;0.00;0.00;;;;;;;;;;7394260;19;20643;-66
2022/12/29 06:36:32;;;;;;;0.10;0.10;;;;;;;;;;7391687;19;20728;-67
2022/12/29 06:39:01;;;;;;;0.00;0.00;;;;;;;;;;7388596;19;21519;-67
2022/12/29 06:41:30;;;;;;;0.10;0.10;;;;;;;;;;7391672;19;20253;-68
2022/12/29 06:44:17;;;;;;;0.10;0.10;;;;;;;;;;7396111;19;20200;-67
2022/12/29 06:46:53;;;;;;;0.10;0.10;;;;;;;;;;7392860;19;20152;-67
2022/12/29 06:49:22;;;;;;;0.10;0.10;;;;;;;;;;7390075;19;20664;-68
2022/12/29 06:51:53;;;;;;;0.00;0.00;;;;;;;;;;7395010;19;20621;-67
2022/12/29 06:54:22;;;;;;;0.10;0.10;;;;;;;;;;7392048;19;20713;-66
2022/12/29 06:56:51;;;;;;;0.10;0.10;;;;;;;;;;7392344;19;20666;-66
2022/12/29 06:59:20;;;;;;;0.00;0.00;;;;;;;;;;7393246;19;20810;-66
2022/12/29 07:01:49;;;;;;;0.07;0.07;;;;;;;;;;7392367;19;20166;-67
2022/12/29 07:04:18;;;;;;;0.10;0.10;;;;;;;;;;7393861;19;20595;-66
2022/12/29 07:06:47;;;;;;;0.00;0.00;;;;;;;;;;7393189;19;20174;-66
2022/12/29 07:09:18;;;;;;;0.10;0.10;;;;;;;;;;7389614;19;21349;-67
2022/12/29 07:11:47;;;;;;;0.00;0.00;;;;;;;;;;7393754;19;20650;-67
2022/12/29 07:14:16;;;;;;;0.10;0.10;;;;;;;;;;7389552;19;20679;-66
2022/12/29 07:16:45;;;;;;;0.10;0.10;;;;;;;;;;7391664;19;20160;-66
2022/12/29 07:19:14;;;;;;;0.00;0.00;;;;;;;;;;7386021;19;20668;-67
2022/12/29 07:21:43;;;;;;;0.07;0.07;;;;;;;;;;7388853;19;20705;-66
2022/12/29 07:24:12;;;;;;;0.00;0.00;;;;;;;;;;7390309;19;20193;-67
2022/12/29 07:26:44;;;;;;;0.10;0.10;;;;;;;;;;7389468;19;20804;-67
2022/12/29 07:29:12;;;;;;;0.10;0.10;;;;;;;;;;7389439;19;20635;-65
2022/12/29 07:31:41;;;;;;;0.03;0.03;;;;;;;;;;7392166;19;20694;-67
2022/12/29 07:34:11;;;;;;;0.10;0.10;;;;;;;;;;7392830;19;20588;-67
2022/12/29 07:36:40;;;;;;;0.03;0.03;;;;;;;;;;7391363;19;20615;-66
2022/12/29 07:39:09;;;;;;;0.00;0.00;;;;;;;;;;7391093;19;20655;-67
2022/12/29 07:41:38;;;;;;;0.00;0.00;;;;;;;;;;7391205;19;20729;-67
2022/12/29 07:44:11;;;;;;;0.00;0.00;;;;;;;;;;7389111;19;20575;-66
2022/12/29 07:46:52;;;;;;;0.10;0.10;;;;;;;;;;7389026;19;20623;-66
2022/12/29 07:49:21;;;;;;;0.10;0.10;;;;;;;;;;7390552;19;20761;-66
2022/12/29 07:51:50;;;;;;;0.00;0.00;;;;;;;;;;7390454;19;20618;-66
2022/12/29 07:54:19;;;;;;;0.10;0.10;;;;;;;;;;7389374;19;20650;-67
2022/12/29 07:56:48;;;;;;;0.10;0.10;;;;;;;;;;7389458;19;20726;-66
2022/12/29 07:59:20;;;;;;;0.00;0.00;;;;;;;;;;7392147;19;20694;-66
2022/12/29 08:01:48;;;;;;;0.10;0.10;;;;;;;;;;7392822;19;20632;-66
2022/12/29 08:04:17;;;;;;;0.00;0.00;;;;;;;;;;7390954;19;20583;-67
2022/12/29 08:06:47;;;;;;;0.10;0.10;;;;;;;;;;7390847;19;20631;-66
2022/12/29 08:09:16;;;;;;;0.10;0.10;;;;;;;;;;7388624;19;20618;-66
2022/12/29 08:11:45;;;;;;;0.00;0.00;;;;;;;;;;7390966;19;20149;-67
2022/12/29 08:14:14;;;;;;;0.10;0.10;;;;;;;;;;7390459;19;20151;-66
2022/12/29 08:16:46;;;;;;;0.00;0.00;;;;;;;;;;7388628;19;20157;-67
2022/12/29 08:19:15;;;;;;;0.10;0.10;;;;;;;;;;7388408;19;20653;-66
2022/12/29 08:21:44;;;;;;;0.00;0.00;;;;;;;;;;7391445;19;20615;-67
2022/12/29 08:24:13;;;;;;;0.00;0.00;;;;;;;;;;7389083;19;20145;-66
2022/12/29 08:26:41;;;;;;;0.00;0.00;;;;;;;;;;7389487;19;20153;-66
2022/12/29 08:29:10;;;;;;;0.10;0.10;;;;;;;;;;7389223;19;20516;-66
2022/12/29 08:31:39;;;;;;;0.00;0.00;;;;;;;;;;7389412;19;20145;-66
2022/12/29 08:34:11;;;;;;;0.00;0.00;;;;;;;;;;7390484;19;20148;-66
2022/12/29 08:36:40;;;;;;;0.00;0.00;;;;;;;;;;7387771;19;20207;-66
2022/12/29 08:39:08;;;;;;;0.00;0.00;;;;;;;;;;7389857;19;20170;-66
2022/12/29 08:41:38;;;;;;;0.10;0.10;;;;;;;;;;7389797;19;20163;-66
2022/12/29 08:44:07;;;;;;;0.00;0.00;;;;;;;;;;7387248;19;20627;-66
2022/12/29 08:46:36;;;;;;;0.10;0.10;;;;;;;;;;7387062;19;20210;-66
2022/12/29 08:49:04;;;;;;;0.10;0.10;;;;;;;;;;7388066;19;20129;-67
2022/12/29 08:51:39;;;;;;;0.10;0.10;;;;;;;;;;7385126;19;20155;-66
2022/12/29 08:54:08;;;;;;;0.00;0.00;;;;;;;;;;7388734;19;20132;-66
2022/12/29 08:56:37;;;;;;;0.00;0.00;;;;;;;;;;7387368;19;20194;-66
2022/12/29 08:59:06;;;;;;;0.00;0.00;;;;;;;;;;7388341;19;20577;-66
2022/12/29 09:01:36;;;;;;;0.00;0.00;;;;;;;;;;7388949;19;20149;-66
2022/12/29 09:04:05;;;;;;;0.00;0.00;;;;;;;;;;7390819;19;20129;-66
2022/12/29 09:06:34;;;;;;;0.00;0.00;;;;;;;;;;7385884;19;20180;-66
2022/12/29 09:09:05;;;;;;;0.00;0.00;;;;;;;;;;7388819;19;20145;-66
2022/12/29 09:11:34;;;;;;;0.00;0.00;;;;;;;;;;7388952;19;20497;-66
2022/12/29 09:14:03;;;;;;;0.00;0.00;;;;;;;;;;7389862;19;20133;-66
2022/12/29 09:16:32;;;;;;;0.00;0.00;;;;;;;;;;7389376;19;20199;-67
2022/12/29 09:19:01;;;;;;;0.00;0.00;;;;;;;;;;7389928;19;20144;-66
2022/12/29 09:21:30;;;;;;;0.00;0.00;;;;;;;;;;7386347;19;20152;-66
2022/12/29 09:23:59;;;;;;;0.00;0.00;;;;;;;;;;7387444;19;20141;-66
2022/12/29 09:26:30;;;;;;;0.00;0.00;;;;;;;;;;7387708;19;20170;-66
2022/12/29 09:28:59;;;;;;;0.00;0.00;;;;;;;;;;7389549;19;20147;-66
2022/12/29 09:31:28;;;;;;;0.00;0.00;;;;;;;;;;7387674;19;20141;-66
2022/12/29 09:33:57;;;;;;;0.03;0.03;;;;;;;;;;7396660;19;20647;-66
2022/12/29 09:36:26;;;;;;;0.03;0.03;;;;;;;;;;7391710;19;20184;-64
2022/12/29 09:38:56;;;;;;;0.00;0.00;;;;;;;;;;7390659;19;20169;-66
2022/12/29 09:41:29;;;;;;;0.00;0.00;;;;;;;;;;7396921;19;20132;-66
2022/12/29 09:44:06;;;;;;;0.00;0.00;;;;;;;;;;7397015;19;20217;-66
2022/12/29 09:46:38;;;;;;;0.07;0.07;;;;;;;;;;7393957;19;20248;-66
2022/12/29 09:49:12;;;;;;;0.03;0.03;;;;;;;;;;7395490;19;20216;-66
2022/12/29 09:51:43;;;;;;;0.03;0.03;;;;;;;;;;7383538;19;20218;-65
2022/12/29 09:54:23;;;;;;;0.00;0.00;;;;;;;;;;7387909;19;20135;-65
2022/12/29 09:56:52;;;;;;;0.00;0.00;;;;;;;;;;7390129;19;20188;-66
2022/12/29 09:59:26;;;;;;;0.00;0.00;;;;;;;;;;7396095;19;20210;-66
2022/12/29 10:01:58;;;;;;;0.00;0.00;;;;;;;;;;7394555;19;20148;-66
2022/12/29 10:04:28;;;;;;;0.00;0.00;;;;;;;;;;7394144;19;20141;-66
2022/12/29 10:06:59;;;;;;;0.00;0.00;;;;;;;;;;7392157;19;20256;-66
2022/12/29 10:09:33;;;;;;;0.00;0.00;;;;;;;;;;7383419;19;20192;-66
2022/12/29 10:12:10;;;;;;;0.00;0.00;;;;;;;;;;7396287;19;20153;-66
2022/12/29 10:14:48;;;;;;;0.00;0.00;;;;;;;;;;7392963;19;20160;-66
2022/12/29 10:17:26;;;;;;;0.00;0.00;;;;;;;;;;7391628;19;20180;-66
2022/12/29 10:20:07;;;;;;;0.10;0.10;;;;;;;;;;7395005;19;20137;-66
2022/12/29 10:22:42;;;;;;;0.10;0.10;;;;;;;;;;7395635;19;20150;-66
2022/12/29 10:25:16;;;;;;;0.00;0.00;;;;;;;;;;7393273;19;20180;-66
2022/12/29 10:27:45;;;;;;;0.00;0.00;;;;;;;;;;7393301;19;20227;-65
2022/12/29 10:30:18;;;;;;;0.00;0.00;;;;;;;;;;7390468;19;20145;-65
2022/12/29 10:32:49;;;;;;;0.00;0.00;;;;;;;;;;7395997;19;20137;-66
2022/12/29 10:35:19;;;;;;;0.00;0.00;;;;;;;;;;7391445;19;20186;-66
2022/12/29 10:37:52;;;;;;;0.00;0.00;;;;;;;;;;7384918;19;20144;-65
2022/12/29 10:40:24;;;;;;;0.00;0.00;;;;;;;;;;7393732;19;20240;-66
2022/12/29 10:42:55;;;;;;;0.00;0.00;;;;;;;;;;7394170;19;20143;-66
2022/12/29 10:45:28;;;;;;;0.00;0.00;;;;;;;;;;7389721;19;20710;-66
2022/12/29 10:48:01;;;;;;;0.00;0.00;;;;;;;;;;7393166;19;20159;-66
2022/12/29 10:50:31;;;;;;;0.00;0.00;;;;;;;;;;7392972;19;20141;-66
2022/12/29 10:53:02;;;;;;;0.00;0.00;;;;;;;;;;7393650;19;20144;-66
2022/12/29 10:55:34;;;;;;;0.00;0.00;;;;;;;;;;7393262;19;20157;-65
2022/12/29 10:58:04;;;;;;;0.00;0.00;;;;;;;;;;7394852;19;20125;-66
2022/12/29 11:00:36;;;;;;;0.10;0.10;;;;;;;;;;7391425;19;20153;-66
2022/12/29 11:03:19;;;;;;;0.10;0.10;;;;;;;;;;7391033;19;20244;-65
2022/12/29 11:05:50;;;;;;;0.10;0.10;;;;;;;;;;7391657;19;20177;-66
2022/12/29 11:08:21;;;;;;;0.10;0.10;;;;;;;;;;7376581;19;20145;-66
2022/12/29 11:11:00;;;;;;;0.10;0.10;;;;;;;;;;7387989;19;20225;-65
2022/12/29 11:13:30;;;;;;;0.10;0.10;;;;;;;;;;7391330;19;20128;-65
2022/12/29 11:16:02;;;;;;;0.10;0.10;;;;;;;;;;7389608;19;20172;-66
2022/12/29 11:18:36;;;;;;;0.00;0.00;;;;;;;;;;7388989;19;20145;-66
2022/12/29 11:21:07;;;;;;;0.07;0.07;;;;;;;;;;7389486;19;20212;-66
2022/12/29 11:23:37;;;;;;;0.00;0.00;;;;;;;;;;7393141;19;20141;-66
2022/12/29 11:26:24;;;;;;;0.10;0.10;;;;;;;;;;7391347;19;20177;-66
2022/12/29 11:29:07;;;;;;;0.10;0.10;;;;;;;;;;7392327;19;20235;-66
2022/12/29 11:31:43;;;;;;;0.10;0.10;;;;;;;;;;7393040;19;20139;-66
2022/12/29 11:34:20;;;;;;;0.10;0.10;;;;;;;;;;7390306;19;20160;-65
2022/12/29 11:36:49;;;;;;;0.00;0.00;;;;;;;;;;7390773;19;20191;-66
2022/12/29 11:39:28;;;;;;;0.10;0.10;;;;;;;;;;7390962;19;20172;-66
2022/12/29 11:41:57;;;;;;;0.00;0.00;;;;;;;;;;7392442;19;20149;-66
2022/12/29 11:44:27;;;;;;;0.00;0.00;;;;;;;;;;7389714;19;20521;-66
2022/12/29 11:46:58;;;;;;;0.10;0.10;;;;;;;;;;7391725;19;20198;-66
2022/12/29 11:49:28;;;;;;;0.00;0.00;;;;;;;;;;7391031;19;20137;-66
2022/12/29 11:51:57;;;;;;;0.00;0.00;;;;;;;;;;7391924;19;20133;-65
2022/12/29 11:54:28;;;;;;;0.00;0.00;;;;;;;;;;7389828;19;20169;-66
2022/12/29 11:56:57;;;;;;;0.00;0.00;;;;;;;;;;7390257;19;20180;-66
2022/12/29 11:59:40;;;;;;;0.00;0.00;;;;;;;;;;7393212;19;20145;-66
2022/12/29 12:02:34;;;;;;;0.00;0.00;;;;;;;;;;7391875;19;20148;-66
2022/12/29 12:05:06;;;;;;;0.07;0.07;;;;;;;;;;7389229;19;20163;-66
2022/12/29 12:07:40;;;;;;;0.00;0.00;;;;;;;;;;7392172;19;20137;-66
2022/12/29 12:10:10;;;;;;;0.00;0.00;;;;;;;;;;7390400;19;20162;-66
2022/12/29 12:12:42;;;;;;;0.00;0.00;;;;;;;;;;7390759;19;20156;-66
2022/12/29 12:15:13;;;;;;;0.00;0.00;;;;;;;;;;7386766;19;20148;-66
2022/12/29 12:17:54;;;;;;;0.00;0.00;;;;;;;;;;7387888;19;20157;-66
2022/12/29 12:20:31;;;;;;;0.00;0.00;;;;;;;;;;7392235;19;20145;-66
2022/12/29 12:23:05;;;;;;;0.00;0.00;;;;;;;;;;7388867;19;20177;-66
2022/12/29 12:25:37;;;;;;;0.00;0.00;;;;;;;;;;7391488;19;20629;-67
2022/12/29 12:28:12;;;;;;;0.10;0.10;;;;;;;;;;7390312;19;20148;-66
2022/12/29 12:30:44;;;;;;;0.00;0.00;;;;;;;;;;7392080;19;20212;-66
2022/12/29 12:33:17;;;;;;;0.10;0.10;;;;;;;;;;7389923;19;20223;-66
2022/12/29 12:35:52;;;;;;;0.00;0.00;;;;;;;;;;7389218;19;20188;-66
2022/12/29 12:38:28;;;;;;;0.00;0.00;;;;;;;;;;7390940;19;20153;-66
2022/12/29 12:41:02;;;;;;;0.00;0.00;;;;;;;;;;7388843;19;20178;-66
2022/12/29 12:43:44;;;;;;;0.00;0.00;;;;;;;;;;7389551;19;20155;-66
2022/12/29 12:46:33;;;;;;;0.10;0.10;;;;;;;;;;7386854;19;20176;-66
2022/12/29 12:49:15;;;;;;;0.00;0.00;;;;;;;;;;7390113;19;20164;-66
2022/12/29 12:51:51;;;;;;;0.00;0.00;;;;;;;;;;7388417;19;20167;-66
2022/12/29 12:54:28;;;;;;;0.00;0.00;;;;;;;;;;7389293;19;20216;-66
2022/12/29 12:57:03;;;;;;;0.00;0.00;;;;;;;;;;7387378;19;20183;-66
2022/12/29 12:59:37;;;;;;;0.00;0.00;;;;;;;;;;7391359;19;20586;-66
2022/12/29 13:02:14;;;;;;;0.00;0.00;;;;;;;;;;7386365;19;20156;-66
2022/12/29 13:04:58;;;;;;;0.00;0.00;;;;;;;;;;7388156;19;20235;-66
2022/12/29 13:07:34;;;;;;;0.00;0.00;;;;;;;;;;7382768;19;20247;-66
2022/12/29 13:10:09;;;;;;;0.00;0.00;;;;;;;;;;7387841;19;20578;-66
2022/12/29 13:12:42;;;;;;;0.00;0.00;;;;;;;;;;7388879;19;20647;-66
2022/12/29 13:15:19;;;;;;;0.00;0.00;;;;;;;;;;7387816;19;20144;-66
2022/12/29 13:17:49;;;;;;;0.00;0.00;;;;;;;;;;7389825;19;20140;-66
2022/12/29 13:20:23;;;;;;;0.00;0.00;;;;;;;;;;7389742;19;20240;-66
2022/12/29 13:22:57;;;;;;;0.00;0.00;;;;;;;;;;7378541;19;20219;-66
2022/12/29 13:25:30;;;;;;;0.03;0.03;;;;;;;;;;7388988;19;20229;-66
2022/12/29 13:28:03;;;;;;;0.00;0.00;;;;;;;;;;7389354;19;20204;-67
2022/12/29 13:30:34;;;;;;;0.10;0.10;;;;;;;;;;7387269;19;20137;-66
2022/12/29 13:33:07;;;;;;;0.10;0.10;;;;;;;;;;7386469;19;20152;-67
2022/12/29 13:35:42;;;;;;;0.00;0.00;;;;;;;;;;7387784;19;20191;-66
2022/12/29 13:38:18;;;;;;;0.00;0.00;;;;;;;;;;7389441;19;20219;-66
2022/12/29 13:40:50;;;;;;;0.00;0.00;;;;;;;;;;7388135;19;20160;-67
2022/12/29 13:43:19;;;;;;;0.00;0.00;;;;;;;;;;7387911;19;20154;-66
2022/12/29 13:45:48;;;;;;;0.00;0.00;;;;;;;;;;7387832;19;20562;-66
2022/12/29 13:48:19;;;;;;;0.00;0.00;;;;;;;;;;7379913;19;20237;-66
2022/12/29 13:50:50;;;;;;;0.10;0.10;;;;;;;;;;7385204;19;20232;-66
2022/12/29 13:53:26;;;;;;;0.00;0.00;;;;;;;;;;7390227;19;20140;-66
2022/12/29 13:55:58;;;;;;;0.00;0.00;;;;;;;;;;7387670;19;20258;-67
2022/12/29 13:58:30;;;;;;;0.10;0.10;;;;;;;;;;7387775;19;20173;-66
2022/12/29 14:01:02;;;;;;;0.00;0.00;;;;;;;;;;7387173;19;20133;-67
2022/12/29 14:03:40;;;;;;;0.00;0.00;;;;;;;;;;7386532;19;20185;-65
2022/12/29 14:06:16;;;;;;;0.00;0.00;;;;;;;;;;7384288;19;20191;-66
2022/12/29 14:08:47;;;;;;;0.00;0.00;;;;;;;;;;7387447;19;20140;-66
2022/12/29 14:11:18;;;;;;;0.00;0.00;;;;;;;;;;7386731;19;20224;-66
2022/12/29 14:13:48;;;;;;;0.00;0.00;;;;;;;;;;7386062;19;20208;-67
2022/12/29 14:16:28;;;;;;;0.00;0.00;;;;;;;;;;7386367;19;20157;-67
2022/12/29 14:18:58;;;;;;;0.00;0.00;;;;;;;;;;7393150;19;20133;-66
2022/12/29 14:21:30;;;;;;;0.03;0.03;;;;;;;;;;7395131;19;20160;-66
2022/12/29 14:24:24;;;;;;;0.00;0.00;;;;;;;;;;7395714;19;20133;-65
2022/12/29 14:26:55;;;;;;;0.00;0.00;;;;;;;;;;7392849;19;20188;-66
2022/12/29 14:29:42;;;;;;;0.10;0.10;;;;;;;;;;7393358;19;20220;-65
2022/12/29 14:32:26;;;;;;;0.00;0.00;;;;;;;;;;7392551;19;20152;-66
2022/12/29 14:34:55;;;;;;;0.00;0.00;;;;;;;;;;7394554;19;20200;-65
2022/12/29 14:37:27;;;;;;;0.00;0.00;;;;;;;;;;7393132;19;20161;-66
2022/12/29 14:40:06;;;;;;;0.00;0.00;;;;;;;;;;7395289;19;20136;-66
2022/12/29 14:42:40;;;;;;;0.00;0.00;;;;;;;;;;7395661;19;20655;-66
2022/12/29 14:45:10;;;;;;;0.00;0.00;;;;;;;;;;7391856;19;20152;-66
2022/12/29 14:47:41;;;;;;;0.00;0.00;;;;;;;;;;7392009;19;20160;-67
2022/12/29 14:50:11;;;;;;;0.10;0.10;;;;;;;;;;7392404;19;20153;-66
2022/12/29 14:52:47;;;;;;;0.07;0.07;;;;;;;;;;7393250;19;20148;-66
2022/12/29 14:55:32;;;;;;;0.10;0.10;;;;;;;;;;7391385;19;20207;-66
2022/12/29 14:58:04;;;;;;;0.00;0.00;;;;;;;;;;7393243;19;20169;-66
2022/12/29 15:00:34;;;;;;;0.10;0.10;;;;;;;;;;7395085;19;20207;-66
2022/12/29 15:03:07;;;;;;;0.00;0.00;;;;;;;;;;7393430;19;20145;-66
2022/12/29 15:05:39;;;;;;;0.10;0.10;;;;;;;;;;7394086;19;20162;-66
2022/12/29 15:08:09;;;;;;;0.00;0.00;;;;;;;;;;7392827;19;20216;-66
2022/12/29 15:10:41;;;;;;;0.00;0.00;;;;;;;;;;7393407;19;20215;-66
2022/12/29 15:13:20;;;;;;;0.00;0.00;;;;;;;;;;7393883;19;20140;-66
2022/12/29 15:15:49;;;;;;;0.03;0.03;;;;;;;;;;7393222;19;20179;-66
2022/12/29 15:18:28;;;;;;;0.00;0.00;;;;;;;;;;7393247;19;20133;-66
2022/12/29 15:20:58;;;;;;;0.00;0.00;;;;;;;;;;7390029;19;20228;-66
2022/12/29 15:23:28;;;;;;;0.00;0.00;;;;;;;;;;7391208;19;20157;-65
2022/12/29 15:25:58;;;;;;;0.10;0.10;;;;;;;;;;7390533;19;20184;-66
2022/12/29 15:28:30;;;;;;;0.10;0.10;;;;;;;;;;7392457;19;20140;-66
2022/12/29 15:31:04;;;;;;;0.00;0.00;;;;;;;;;;7389443;19;20145;-66
2022/12/29 15:33:33;;;;;;;0.00;0.00;;;;;;;;;;7392668;19;20141;-66
2022/12/29 15:36:06;;;;;;;0.00;0.00;;;;;;;;;;7392648;19;20182;-66
2022/12/29 15:38:35;;;;;;;0.00;0.00;;;;;;;;;;7394033;19;20137;-66
2022/12/29 15:41:07;;;;;;;0.00;0.00;;;;;;;;;;7392933;19;20154;-66
2022/12/29 15:43:46;;;;;;;0.00;0.00;;;;;;;;;;7390546;19;20191;-66
2022/12/29 15:46:15;;;;;;;0.00;0.00;;;;;;;;;;7389081;19;20256;-66
2022/12/29 15:48:44;;;;;;;0.00;0.00;;;;;;;;;;7391725;19;20204;-66
2022/12/29 15:51:20;;;;;;;0.10;0.10;;;;;;;;;;7388304;19;20228;-66
2022/12/29 15:53:50;;;;;;;0.00;0.00;;;;;;;;;;7387665;19;20259;-66
2022/12/29 15:56:19;;;;;;;0.00;0.00;;;;;;;;;;7384827;19;20157;-66